createdAt,value
2017-11-23T00:00:31.283Z,4.97
2017-11-23T00:03:00.203Z,2.70
2017-11-23T00:05:28.383Z,3.27
2017-11-23T00:07:56.563Z,4.00
2017-11-23T00:10:23.976Z,4.00
2017-11-23T00:12:51.424Z,4.00
2017-11-23T00:15:19.592Z,4.60
2017-11-23T00:17:47.768Z,3.47
2017-11-23T00:20:15.183Z,4.10
2017-11-23T00:22:42.587Z,4.43
2017-11-23T00:25:10.008Z,4.10
2017-11-23T00:27:37.420Z,5.03
2017-11-23T00:30:04.836Z,4.03
2017-11-23T00:32:32.248Z,5.00
2017-11-23T00:35:00.432Z,3.90
2017-11-23T00:37:27.839Z,4.03
2017-11-23T00:39:55.270Z,4.57
2017-11-23T00:42:22.667Z,4.17
2017-11-23T00:44:50.071Z,3.37
2017-11-23T00:47:17.480Z,3.27
2017-11-23T00:49:45.672Z,5.37
2017-11-23T00:52:13.838Z,4.53
2017-11-23T00:54:42.035Z,3.67
2017-11-23T00:57:09.442Z,4.13
2017-11-23T00:59:38.361Z,4.50
2017-11-23T01:02:06.538Z,4.37
2017-11-23T01:04:34.724Z,3.70
2017-11-23T01:07:02.906Z,3.53
2017-11-23T01:09:30.316Z,5.00
2017-11-23T01:11:57.739Z,3.57
2017-11-23T01:14:25.152Z,4.80
2017-11-23T01:16:52.562Z,2.57
2017-11-23T01:19:19.971Z,4.80
2017-11-23T01:21:48.956Z,4.10
2017-11-23T01:24:17.124Z,4.00
2017-11-23T01:26:44.540Z,3.60
2017-11-23T01:29:11.944Z,3.60
2017-11-23T01:31:40.131Z,4.53
2017-11-23T01:34:08.308Z,4.77
2017-11-23T01:36:36.507Z,4.40
2017-11-23T01:39:03.918Z,5.30
2017-11-23T01:41:31.343Z,4.23
2017-11-23T01:43:58.756Z,4.47
2017-11-23T01:46:26.168Z,4.60
2017-11-23T01:48:53.920Z,4.03
2017-11-23T01:51:21.328Z,4.80
2017-11-23T01:53:48.744Z,4.93
2017-11-23T01:56:16.923Z,3.57
2017-11-23T01:58:45.103Z,3.97
2017-11-23T02:01:13.272Z,4.23
2017-11-23T02:03:40.687Z,4.57
2017-11-23T02:06:08.090Z,4.67
2017-11-23T02:08:36.279Z,4.43
2017-11-23T02:11:04.460Z,4.70
2017-11-23T02:13:31.872Z,4.27
2017-11-23T02:15:59.287Z,5.70
2017-11-23T02:18:26.700Z,4.43
2017-11-23T02:20:54.109Z,5.37
2017-11-23T02:23:21.524Z,5.30
2017-11-23T02:25:49.707Z,4.50
2017-11-23T02:28:17.887Z,5.03
2017-11-23T02:30:45.303Z,5.20
2017-11-23T02:33:12.727Z,4.60
2017-11-23T02:35:40.175Z,4.70
2017-11-23T02:38:07.585Z,5.13
2017-11-23T02:40:35.003Z,5.10
2017-11-23T02:43:02.468Z,5.20
2017-11-23T02:45:29.880Z,5.03
2017-11-23T02:47:58.048Z,4.73
2017-11-23T02:50:26.243Z,4.80
2017-11-23T02:52:53.648Z,4.67
2017-11-23T02:55:21.072Z,5.30
2017-11-23T02:57:48.474Z,5.17
2017-11-23T03:00:15.895Z,4.73
2017-11-23T03:02:43.314Z,5.40
2017-11-23T03:05:10.739Z,5.30
2017-11-23T03:07:38.151Z,4.77
2017-11-23T03:10:05.572Z,5.80
2017-11-23T03:12:33.765Z,5.37
2017-11-23T03:15:01.175Z,4.83
2017-11-23T03:17:28.601Z,5.47
2017-11-23T03:19:56.022Z,5.67
2017-11-23T03:22:24.192Z,5.47
2017-11-23T03:24:52.367Z,5.60
2017-11-23T03:27:20.547Z,6.23
2017-11-23T03:29:47.947Z,4.10
2017-11-23T03:32:15.363Z,5.07
2017-11-23T03:34:42.776Z,6.03
2017-11-23T03:37:10.955Z,5.47
2017-11-23T03:39:38.363Z,6.17
2017-11-23T03:42:05.776Z,4.80
2017-11-23T03:44:33.950Z,4.60
2017-11-23T03:47:02.188Z,5.70
2017-11-23T03:49:29.595Z,5.27
2017-11-23T03:51:57.779Z,5.33
2017-11-23T03:54:25.187Z,3.97
2017-11-23T03:56:53.376Z,4.40
2017-11-23T03:59:20.795Z,4.37
2017-11-23T04:01:48.236Z,4.97
2017-11-23T04:04:15.647Z,5.17
2017-11-23T04:06:43.059Z,4.97
2017-11-23T04:09:10.479Z,4.97
2017-11-23T04:11:38.660Z,5.37
2017-11-23T04:14:06.076Z,4.70
2017-11-23T04:16:33.602Z,5.20
2017-11-23T04:19:01.008Z,5.37
2017-11-23T04:21:29.187Z,5.40
2017-11-23T04:23:57.378Z,5.20
2017-11-23T04:26:24.795Z,4.83
2017-11-23T04:28:53.047Z,5.57
2017-11-23T04:31:20.470Z,5.63
2017-11-23T04:33:47.893Z,5.23
2017-11-23T04:36:15.303Z,5.97
2017-11-23T04:38:42.730Z,6.13
2017-11-23T04:41:10.131Z,5.90
2017-11-23T04:43:37.546Z,5.67
2017-11-23T04:46:04.963Z,5.23
2017-11-23T04:48:32.379Z,5.20
2017-11-23T04:50:59.800Z,4.87
2017-11-23T04:53:27.983Z,5.03
2017-11-23T04:55:56.155Z,5.40
2017-11-23T04:58:24.331Z,5.83
2017-11-23T05:00:52.515Z,5.70
2017-11-23T05:03:19.928Z,6.10
2017-11-23T05:05:47.342Z,5.70
2017-11-23T05:08:14.743Z,5.33
2017-11-23T05:10:42.169Z,5.40
2017-11-23T05:13:09.573Z,5.77
2017-11-23T05:15:37.771Z,7.50
2017-11-23T05:18:05.179Z,5.70
2017-11-23T05:20:32.596Z,7.07
2017-11-23T05:23:00.072Z,5.63
2017-11-23T05:25:27.483Z,6.07
2017-11-23T05:27:55.659Z,5.80
2017-11-23T05:30:23.068Z,5.70
2017-11-23T05:32:50.487Z,6.00
2017-11-23T05:35:17.893Z,6.13
2017-11-23T05:37:45.310Z,5.27
2017-11-23T05:40:12.712Z,4.80
2017-11-23T05:42:40.119Z,5.57
2017-11-23T05:45:07.526Z,5.50
2017-11-23T05:47:35.059Z,3.77
2017-11-23T05:50:03.290Z,4.87
2017-11-23T05:52:30.696Z,5.07
2017-11-23T05:54:58.114Z,5.43
2017-11-23T05:57:25.523Z,5.03
2017-11-23T05:59:52.943Z,3.93
2017-11-23T06:02:20.360Z,5.43
2017-11-23T06:04:47.779Z,4.93
2017-11-23T06:07:15.190Z,4.83
2017-11-23T06:09:42.611Z,4.00
2017-11-23T06:12:10.782Z,4.37
2017-11-23T06:14:38.975Z,4.10
2017-11-23T06:17:06.391Z,3.80
2017-11-23T06:19:33.803Z,4.60
2017-11-23T06:22:01.226Z,4.20
2017-11-23T06:24:29.399Z,5.20
2017-11-23T06:26:57.579Z,5.27
2017-11-23T06:29:25.759Z,3.97
2017-11-23T06:31:53.948Z,4.90
2017-11-23T06:34:21.351Z,3.90
2017-11-23T06:36:48.779Z,4.77
2017-11-23T06:39:16.187Z,4.37
2017-11-23T06:41:44.405Z,3.53
2017-11-23T06:44:11.888Z,3.30
2017-11-23T06:46:39.310Z,4.67
2017-11-23T06:49:06.781Z,4.87
2017-11-23T06:51:34.184Z,4.33
2017-11-23T06:54:01.603Z,3.93
2017-11-23T06:56:29.018Z,3.60
2017-11-23T06:58:57.209Z,3.97
2017-11-23T07:01:24.610Z,3.37
2017-11-23T07:03:52.035Z,4.10
2017-11-23T07:06:19.444Z,4.20
2017-11-23T07:08:47.627Z,3.97
2017-11-23T07:11:15.812Z,3.70
2017-11-23T07:13:43.229Z,3.50
2017-11-23T07:16:10.646Z,3.80
2017-11-23T07:18:38.059Z,3.60
2017-11-23T07:21:06.240Z,4.10
2017-11-23T07:23:34.438Z,3.50
2017-11-23T07:26:01.844Z,3.03
2017-11-23T07:28:29.266Z,3.43
2017-11-23T07:30:56.679Z,3.77
2017-11-23T07:33:24.863Z,3.67
2017-11-23T07:35:53.055Z,3.40
2017-11-23T07:38:20.464Z,3.43
2017-11-23T07:40:47.891Z,3.20
2017-11-23T07:43:15.295Z,3.10
2017-11-23T07:45:43.474Z,4.07
2017-11-23T07:48:11.656Z,2.83
2017-11-23T07:50:39.841Z,3.47
2017-11-23T07:53:07.257Z,3.63
2017-11-23T07:55:34.679Z,3.50
2017-11-23T07:58:02.097Z,2.93
2017-11-23T08:00:30.283Z,3.23
2017-11-23T08:02:57.698Z,3.17
2017-11-23T08:05:25.111Z,3.67
2017-11-23T08:07:52.520Z,2.90
2017-11-23T08:10:19.943Z,2.83
2017-11-23T08:12:47.351Z,3.70
2017-11-23T08:15:15.538Z,2.70
2017-11-23T08:17:42.953Z,3.20
2017-11-23T08:20:10.375Z,3.17
2017-11-23T08:22:37.799Z,3.27
2017-11-23T08:25:05.206Z,3.83
2017-11-23T08:27:32.631Z,2.70
2017-11-23T08:30:00.047Z,3.07
2017-11-23T08:32:28.240Z,3.43
2017-11-23T08:34:55.648Z,3.20
2017-11-23T08:37:23.072Z,2.80
2017-11-23T08:39:50.489Z,2.87
2017-11-23T08:42:17.903Z,3.03
2017-11-23T08:44:45.315Z,3.23
2017-11-23T08:47:12.744Z,2.90
2017-11-23T08:49:40.164Z,3.10
2017-11-23T08:52:10.417Z,3.00
2017-11-23T08:54:43.413Z,2.30
2017-11-23T08:57:10.830Z,2.53
2017-11-23T08:59:38.230Z,2.80
2017-11-23T09:02:06.424Z,3.30
2017-11-23T09:04:33.835Z,3.00
2017-11-23T09:07:01.247Z,3.47
2017-11-23T09:09:28.669Z,2.87
2017-11-23T09:11:56.080Z,3.67
2017-11-23T09:14:23.503Z,2.57
2017-11-23T09:16:51.679Z,2.80
2017-11-23T09:19:19.163Z,3.40
2017-11-23T09:21:46.565Z,2.63
2017-11-23T09:24:13.983Z,3.10
2017-11-23T09:26:41.399Z,2.93
2017-11-23T09:29:09.593Z,3.40
2017-11-23T09:31:36.996Z,3.37
2017-11-23T09:34:04.434Z,2.67
2017-11-23T09:36:31.835Z,3.07
2017-11-23T09:39:00.019Z,3.03
2017-11-23T09:41:27.439Z,3.03
2017-11-23T09:43:54.863Z,4.53
2017-11-23T09:46:22.276Z,3.20
2017-11-23T09:48:50.454Z,3.43
2017-11-23T09:51:18.638Z,3.73
2017-11-23T09:53:46.047Z,4.30
2017-11-23T09:56:13.469Z,4.20
2017-11-23T09:58:40.884Z,4.23
2017-11-23T10:01:09.071Z,3.20
2017-11-23T10:03:37.248Z,3.50
2017-11-23T10:06:05.431Z,3.20
2017-11-23T10:08:32.844Z,3.00
2017-11-23T10:11:00.279Z,2.20
2017-11-23T10:13:27.699Z,2.50
2017-11-23T10:15:55.108Z,2.80
2017-11-23T10:18:22.528Z,2.83
2017-11-23T10:20:49.935Z,2.63
2017-11-23T10:23:17.365Z,2.90
2017-11-23T10:25:44.767Z,2.20
2017-11-23T10:28:12.952Z,2.40
2017-11-23T10:30:40.372Z,2.70
2017-11-23T10:33:07.781Z,2.70
2017-11-23T10:35:35.191Z,2.77
2017-11-23T10:38:03.379Z,2.80
2017-11-23T10:40:31.559Z,2.67
2017-11-23T10:42:59.750Z,2.37
2017-11-23T10:45:27.160Z,2.57
2017-11-23T10:47:54.575Z,3.47
2017-11-23T10:50:21.987Z,2.43
2017-11-23T10:52:50.173Z,2.50
2017-11-23T10:55:18.352Z,2.23
2017-11-23T10:57:45.786Z,3.00
2017-11-23T11:00:13.195Z,2.33
2017-11-23T11:02:40.620Z,2.73
2017-11-23T11:05:08.043Z,2.10
2017-11-23T11:07:35.469Z,2.30
2017-11-23T11:10:02.879Z,2.50
2017-11-23T11:12:31.059Z,3.70
2017-11-23T11:14:59.250Z,2.40
2017-11-23T11:17:26.655Z,3.17
2017-11-23T11:19:54.081Z,2.90
2017-11-23T11:22:21.483Z,2.80
2017-11-23T11:24:49.675Z,2.50
2017-11-23T11:27:17.856Z,2.63
2017-11-23T11:29:45.279Z,2.83
2017-11-23T11:32:12.697Z,2.37
2017-11-23T11:34:40.100Z,2.67
2017-11-23T11:37:07.707Z,3.00
2017-11-23T11:39:35.128Z,2.60
2017-11-23T11:42:03.341Z,2.60
2017-11-23T11:44:30.752Z,2.87
2017-11-23T11:46:58.932Z,2.40
2017-11-23T11:49:27.116Z,2.73
2017-11-23T11:51:55.300Z,2.80
2017-11-23T11:54:22.710Z,2.70
2017-11-23T11:56:51.634Z,2.50
2017-11-23T11:59:19.816Z,2.70
2017-11-23T12:01:47.999Z,3.17
2017-11-23T12:04:15.411Z,2.77
2017-11-23T12:06:42.843Z,2.27
2017-11-23T12:09:10.256Z,2.80
2017-11-23T12:11:37.673Z,2.97
2017-11-23T12:14:16.964Z,3.03
2017-11-23T12:16:56.141Z,2.97
2017-11-23T12:19:29.412Z,2.87
2017-11-23T12:35:25.074Z,2.70
2017-11-23T12:37:52.483Z,2.80
2017-11-23T12:40:19.895Z,2.90
2017-11-23T12:42:47.303Z,2.93
2017-11-23T12:45:14.727Z,2.23
2017-11-23T12:47:42.139Z,2.23
2017-11-23T12:50:10.327Z,3.20
2017-11-23T12:52:37.737Z,2.73
2017-11-23T12:55:05.169Z,3.10
2017-11-23T12:57:32.571Z,2.73
2017-11-23T13:00:00.771Z,2.97
2017-11-23T13:02:28.193Z,2.77
2017-11-23T13:04:55.602Z,2.73
2017-11-23T13:07:23.019Z,2.57
2017-11-23T13:09:51.190Z,2.90
2017-11-23T13:12:19.371Z,2.33
2017-11-23T13:14:47.552Z,2.50
2017-11-23T13:17:15.743Z,3.27
2017-11-23T13:19:43.159Z,2.77
2017-11-23T13:22:10.594Z,2.57
2017-11-23T13:24:38.003Z,2.90
2017-11-23T13:27:05.422Z,2.73
2017-11-23T13:29:32.830Z,2.70
2017-11-23T13:32:00.250Z,3.00
2017-11-23T13:34:28.439Z,3.00
2017-11-23T13:36:55.855Z,2.50
2017-11-23T13:39:24.040Z,3.00
2017-11-23T13:41:51.454Z,3.00
2017-11-23T13:44:18.863Z,2.70
2017-11-23T13:46:47.048Z,2.70
2017-11-23T13:49:15.227Z,2.80
2017-11-23T13:51:43.404Z,3.00
2017-11-23T13:54:10.824Z,2.73
2017-11-23T13:56:38.239Z,2.73
2017-11-23T13:59:05.660Z,2.87
2017-11-23T14:01:33.830Z,3.50
2017-11-23T14:04:02.024Z,3.83
2017-11-23T14:06:30.202Z,2.70
2017-11-23T14:08:57.603Z,1.90
2017-11-23T14:11:25.158Z,2.93
2017-11-23T14:13:52.690Z,3.00
2017-11-23T14:16:20.099Z,2.60
2017-11-23T14:18:47.604Z,2.77
2017-11-23T14:21:15.015Z,3.17
2017-11-23T14:23:42.428Z,2.60
2017-11-23T14:26:09.846Z,2.80
2017-11-23T14:28:37.283Z,2.50
2017-11-23T14:31:04.694Z,2.63
2017-11-23T14:33:32.106Z,2.03
2017-11-23T14:36:00.290Z,3.30
2017-11-23T14:38:27.711Z,2.30
2017-11-23T14:40:55.126Z,2.70
2017-11-23T14:43:22.539Z,2.77
2017-11-23T14:45:50.756Z,1.93
2017-11-23T14:48:18.180Z,2.60
2017-11-23T14:50:46.489Z,2.70
2017-11-23T14:53:13.900Z,2.67
2017-11-23T14:55:41.308Z,2.63
2017-11-23T14:58:08.739Z,3.17
2017-11-23T15:00:36.147Z,2.77
2017-11-23T15:03:03.672Z,2.63
2017-11-23T15:05:31.084Z,2.67
2017-11-23T15:07:58.504Z,2.37
2017-11-23T15:10:25.923Z,2.47
2017-11-23T15:12:53.340Z,2.57
2017-11-23T15:15:20.761Z,2.70
2017-11-23T15:17:48.180Z,2.40
2017-11-23T15:20:16.363Z,2.93
2017-11-23T15:22:43.787Z,3.10
2017-11-23T15:25:11.301Z,2.50
2017-11-23T15:27:38.713Z,2.17
2017-11-23T15:30:06.900Z,2.40
2017-11-23T15:32:34.319Z,2.87
2017-11-23T15:35:01.739Z,3.13
2017-11-23T15:37:29.200Z,2.53
2017-11-23T15:39:56.611Z,2.90
2017-11-23T15:42:24.034Z,2.67
2017-11-23T15:44:51.443Z,3.67
2017-11-23T15:47:18.867Z,2.60
2017-11-23T15:49:46.288Z,3.93
2017-11-23T15:52:13.707Z,2.87
2017-11-23T15:54:41.122Z,2.70
2017-11-23T15:57:09.304Z,2.77
2017-11-23T15:59:36.730Z,2.77
2017-11-23T16:02:04.144Z,2.27
2017-11-23T16:04:32.330Z,2.27
2017-11-23T16:06:59.735Z,2.30
2017-11-23T16:09:27.265Z,2.60
2017-11-23T16:11:54.669Z,2.93
2017-11-23T16:14:22.092Z,2.60
2017-11-23T16:16:49.514Z,2.80
2017-11-23T16:19:16.923Z,2.70
2017-11-23T16:21:44.347Z,2.10
2017-11-23T16:24:11.766Z,2.80
2017-11-23T16:26:39.948Z,2.80
2017-11-23T16:29:08.124Z,3.30
2017-11-23T16:31:35.539Z,2.80
2017-11-23T16:34:02.959Z,2.33
2017-11-23T16:36:30.924Z,3.30
2017-11-23T16:39:03.975Z,2.80
2017-11-23T16:41:47.026Z,3.93
2017-11-23T16:44:31.131Z,2.93
2017-11-23T16:47:04.338Z,2.67
2017-11-23T16:49:38.431Z,2.70
2017-11-23T16:52:11.452Z,3.03
2017-11-23T16:54:45.541Z,3.03
2017-11-23T16:57:15.368Z,2.97
2017-11-23T16:59:49.183Z,2.70
2017-11-23T17:02:23.166Z,2.80
2017-11-23T17:04:56.267Z,3.13
2017-11-23T17:07:29.227Z,3.27
2017-11-23T17:10:13.036Z,3.50
2017-11-23T17:12:46.018Z,3.10
2017-11-23T17:15:19.094Z,3.10
2017-11-23T17:17:53.095Z,2.60
2017-11-23T17:20:20.587Z,3.30
2017-11-23T17:22:47.987Z,3.43
2017-11-23T17:25:16.175Z,3.17
2017-11-23T17:27:44.357Z,2.93
2017-11-23T17:30:11.774Z,2.40
2017-11-23T17:32:39.200Z,2.70
2017-11-23T17:35:06.628Z,2.57
2017-11-23T17:37:34.325Z,2.50
2017-11-23T17:40:01.727Z,3.20
2017-11-23T17:42:29.906Z,2.73
2017-11-23T17:44:58.087Z,3.03
2017-11-23T17:47:26.271Z,3.33
2017-11-23T17:49:53.674Z,3.30
2017-11-23T17:52:21.091Z,2.97
2017-11-23T17:54:48.558Z,3.73
2017-11-23T17:57:15.975Z,2.80
2017-11-23T17:59:44.150Z,3.30
2017-11-23T18:02:12.571Z,3.00
2017-11-23T18:04:39.979Z,3.50
2017-11-23T18:07:08.725Z,2.67
2017-11-23T18:09:36.143Z,3.10
2017-11-23T18:12:04.327Z,2.90
2017-11-23T18:14:31.799Z,3.30
2017-11-23T18:16:59.215Z,2.77
2017-11-23T18:19:27.429Z,2.37
2017-11-23T18:21:54.838Z,3.40
2017-11-23T18:24:23.015Z,3.00
2017-11-23T18:26:51.198Z,2.90
2017-11-23T18:29:19.394Z,3.13
2017-11-23T18:31:46.811Z,3.47
2017-11-23T18:34:14.232Z,3.10
2017-11-23T18:36:41.657Z,2.90
2017-11-23T18:39:09.823Z,2.97
2017-11-23T18:41:37.247Z,3.40
2017-11-23T18:44:04.663Z,3.33
2017-11-23T18:46:32.086Z,3.13
2017-11-23T18:49:00.269Z,3.40
2017-11-23T18:51:27.680Z,3.13
2017-11-23T18:53:55.867Z,2.90
2017-11-23T18:56:23.280Z,3.23
2017-11-23T18:58:50.691Z,3.57
2017-11-23T19:01:18.877Z,4.00
2017-11-23T19:03:47.051Z,3.60
2017-11-23T19:06:14.490Z,3.77
2017-11-23T19:08:41.890Z,3.20
2017-11-23T19:11:09.303Z,3.70
2017-11-23T19:13:37.490Z,3.73
2017-11-23T19:16:05.662Z,3.70
2017-11-23T19:18:33.848Z,3.50
2017-11-23T19:21:01.247Z,3.67
2017-11-23T19:23:28.668Z,4.37
2017-11-23T19:25:56.130Z,4.20
2017-11-23T19:28:23.597Z,4.73
2017-11-23T19:30:51.057Z,3.70
2017-11-23T19:33:18.463Z,4.67
2017-11-23T19:35:46.648Z,4.17
2017-11-23T19:38:14.864Z,3.93
2017-11-23T19:40:42.242Z,4.10
2017-11-23T19:43:09.670Z,5.23
2017-11-23T19:45:37.092Z,4.10
2017-11-23T19:48:04.503Z,3.97
2017-11-23T19:50:31.926Z,3.30
2017-11-23T19:52:59.394Z,4.77
2017-11-23T19:55:26.799Z,4.03
2017-11-23T19:57:54.216Z,3.67
2017-11-23T20:00:21.631Z,3.73
2017-11-23T20:02:49.824Z,3.70
2017-11-23T20:05:17.244Z,3.67
2017-11-23T20:07:44.663Z,3.80
2017-11-23T20:10:12.075Z,3.73
2017-11-23T20:12:40.255Z,4.00
2017-11-23T20:15:07.727Z,3.13
2017-11-23T20:17:35.151Z,3.40
2017-11-23T20:20:03.339Z,3.93
2017-11-23T20:22:30.755Z,3.53
2017-11-23T20:24:58.174Z,3.73
2017-11-23T20:27:25.591Z,3.90
2017-11-23T20:29:53.805Z,3.60
2017-11-23T20:32:21.222Z,2.90
2017-11-23T20:34:49.399Z,3.70
2017-11-23T20:37:17.607Z,4.40
2017-11-23T20:39:45.015Z,3.77
2017-11-23T20:42:12.472Z,3.73
2017-11-23T20:44:39.855Z,4.27
2017-11-23T20:47:07.267Z,4.30
2017-11-23T20:49:36.203Z,4.77
2017-11-23T20:52:04.500Z,3.63
2017-11-23T20:54:31.910Z,4.50
2017-11-23T20:56:59.327Z,4.03
2017-11-23T20:59:26.739Z,4.80
2017-11-23T21:01:55.049Z,4.80
2017-11-23T21:04:22.756Z,4.03
2017-11-23T21:06:50.174Z,4.17
2017-11-23T21:09:17.672Z,4.50
2017-11-23T21:11:45.088Z,5.30
2017-11-23T21:14:12.499Z,4.27
2017-11-23T21:16:40.668Z,4.60
2017-11-23T21:19:08.856Z,4.43
2017-11-23T21:21:37.035Z,4.80
2017-11-23T21:24:05.219Z,4.43
2017-11-23T21:26:32.640Z,4.30
2017-11-23T21:29:00.064Z,5.53
2017-11-23T21:31:27.479Z,5.00
2017-11-23T21:33:54.919Z,4.50
2017-11-23T21:36:23.103Z,4.63
2017-11-23T21:38:51.284Z,4.40
2017-11-23T21:41:18.713Z,4.57
2017-11-23T21:43:46.216Z,4.77
2017-11-23T21:46:13.653Z,4.10
2017-11-23T21:48:41.828Z,4.30
2017-11-23T21:51:09.244Z,4.40
2017-11-23T21:53:36.664Z,3.93
2017-11-23T21:56:04.079Z,4.47
2017-11-23T21:58:33.205Z,3.90
2017-11-23T22:01:00.620Z,5.00
2017-11-23T22:03:28.027Z,4.57
2017-11-23T22:05:55.443Z,4.77
2017-11-23T22:08:23.628Z,5.17
2017-11-23T22:10:51.050Z,5.20
2017-11-23T22:13:18.586Z,4.40
2017-11-23T22:15:45.987Z,4.90
2017-11-23T22:18:14.168Z,3.87
2017-11-23T22:20:42.349Z,4.80
2017-11-23T22:23:09.767Z,4.10
2017-11-23T22:25:37.948Z,4.33
2017-11-23T22:28:05.363Z,4.40
2017-11-23T22:30:32.788Z,4.07
2017-11-23T22:33:00.967Z,4.40
2017-11-23T22:35:28.382Z,4.17
2017-11-23T22:37:55.900Z,4.83
2017-11-23T22:40:23.632Z,4.87
2017-11-23T22:42:51.815Z,4.27
2017-11-23T22:45:19.232Z,4.30
2017-11-23T22:47:46.672Z,4.90
2017-11-23T22:50:14.102Z,4.60
2017-11-23T22:52:41.522Z,4.80
2017-11-23T22:55:09.980Z,3.20
2017-11-23T22:57:37.712Z,4.10
2017-11-23T23:00:05.573Z,3.70
2017-11-23T23:02:33.116Z,4.23
2017-11-23T23:05:00.523Z,3.90
2017-11-23T23:07:27.944Z,4.60
2017-11-23T23:09:55.404Z,4.33
2017-11-23T23:12:23.063Z,4.10
2017-11-23T23:14:50.823Z,4.53
2017-11-23T23:17:18.244Z,4.67
2017-11-23T23:19:49.529Z,4.13
2017-11-23T23:22:16.950Z,4.43
2017-11-23T23:24:45.126Z,4.30
2017-11-23T23:27:13.315Z,4.40
2017-11-23T23:29:40.727Z,4.27
2017-11-23T23:32:08.359Z,5.03
2017-11-23T23:34:35.779Z,4.23
2017-11-23T23:37:03.970Z,4.57
2017-11-23T23:39:31.375Z,5.40
2017-11-23T23:41:58.803Z,4.60
2017-11-23T23:44:26.235Z,3.90
2017-11-23T23:46:53.653Z,4.07
2017-11-23T23:49:21.839Z,4.33
2017-11-23T23:51:50.024Z,4.07
2017-11-23T23:54:18.223Z,4.90
2017-11-23T23:56:45.639Z,4.87
2017-11-23T23:59:13.831Z,4.27
